sensor_id;sensor_type;location;lat;lon;timestamp;P1;durP1;ratioP1;P2;durP2;ratioP2
64791;SDS011;51226;47.504;19.074;2022-07-29T07:09:30;7.60;;;5.93;;
64791;SDS011;51226;47.504;19.074;2022-07-29T07:12:42;7.50;;;6.43;;
64791;SDS011;51226;47.504;19.074;2022-07-29T07:15:45;8.23;;;6.22;;
64791;SDS011;51226;47.504;19.074;2022-07-29T07:18:50;6.87;;;6.12;;
64791;SDS011;51226;47.504;19.074;2022-07-29T07:21:53;8.15;;;6.25;;
64791;SDS011;51226;47.504;19.074;2022-07-29T07:24:57;9.40;;;7.72;;
64791;SDS011;51226;47.504;19.074;2022-07-29T07:27:59;8.68;;;6.70;;
64791;SDS011;51226;47.504;19.074;2022-07-29T07:31:02;7.35;;;6.65;;
64791;SDS011;51226;47.504;19.074;2022-07-29T07:34:05;7.37;;;6.68;;
64791;SDS011;51226;47.504;19.074;2022-07-29T07:37:08;6.72;;;6.10;;
64791;SDS011;51226;47.504;19.074;2022-07-29T07:40:11;9.73;;;6.80;;
64791;SDS011;51226;47.504;19.074;2022-07-29T07:43:22;6.47;;;5.87;;
64791;SDS011;51226;47.504;19.074;2022-07-29T07:46:24;7.78;;;6.35;;
64791;SDS011;51226;47.504;19.074;2022-07-29T07:49:28;7.40;;;5.70;;
64791;SDS011;51226;47.504;19.074;2022-07-29T07:52:30;6.65;;;5.97;;
64791;SDS011;51226;47.504;19.074;2022-07-29T07:55:33;9.32;;;6.93;;
64791;SDS011;51226;47.504;19.074;2022-07-29T07:59:02;7.78;;;5.97;;
64791;SDS011;51226;47.504;19.074;2022-07-29T08:02:05;7.50;;;6.80;;
64791;SDS011;51226;47.504;19.074;2022-07-29T08:05:08;6.57;;;6.07;;
64791;SDS011;51226;47.504;19.074;2022-07-29T08:08:14;9.40;;;6.25;;
64791;SDS011;51226;47.504;19.074;2022-07-29T08:11:16;6.50;;;6.00;;
64791;SDS011;51226;47.504;19.074;2022-07-29T08:14:19;6.80;;;6.22;;
64791;SDS011;51226;47.504;19.074;2022-07-29T08:17:22;6.97;;;6.00;;
64791;SDS011;51226;47.504;19.074;2022-07-29T08:20:25;6.37;;;5.87;;
64791;SDS011;51226;47.504;19.074;2022-07-29T08:23:28;7.47;;;6.70;;
64791;SDS011;51226;47.504;19.074;2022-07-29T08:29:52;9.30;;;6.30;;
64791;SDS011;51226;47.504;19.074;2022-07-29T08:32:58;7.93;;;6.15;;
64791;SDS011;51226;47.504;19.074;2022-07-29T08:36:01;6.68;;;6.07;;
64791;SDS011;51226;47.504;19.074;2022-07-29T08:39:04;7.68;;;6.20;;
64791;SDS011;51226;47.504;19.074;2022-07-29T08:42:08;6.93;;;6.28;;
64791;SDS011;51226;47.504;19.074;2022-07-29T08:45:12;7.50;;;6.05;;
64791;SDS011;51226;47.504;19.074;2022-07-29T08:48:18;7.03;;;5.85;;
64791;SDS011;51226;47.504;19.074;2022-07-29T08:51:22;6.55;;;6.00;;
64791;SDS011;51226;47.504;19.074;2022-07-29T08:54:26;8.68;;;5.72;;
64791;SDS011;51226;47.504;19.074;2022-07-29T08:57:30;6.85;;;5.93;;
64791;SDS011;51226;47.504;19.074;2022-07-29T09:00:40;9.85;;;5.70;;
64791;SDS011;51226;47.504;19.074;2022-07-29T09:03:46;8.70;;;6.30;;
64791;SDS011;51226;47.504;19.074;2022-07-29T09:06:51;7.05;;;6.35;;
64791;SDS011;51226;47.504;19.074;2022-07-29T09:09:56;6.53;;;5.82;;
64791;SDS011;51226;47.504;19.074;2022-07-29T09:12:59;5.75;;;5.25;;
64791;SDS011;51226;47.504;19.074;2022-07-29T09:16:02;6.75;;;5.65;;
64791;SDS011;51226;47.504;19.074;2022-07-29T09:19:19;8.88;;;5.95;;
64791;SDS011;51226;47.504;19.074;2022-07-29T09:22:29;7.10;;;5.93;;
64791;SDS011;51226;47.504;19.074;2022-07-29T09:25:42;6.90;;;5.37;;
64791;SDS011;51226;47.504;19.074;2022-07-29T09:28:45;6.18;;;5.60;;
64791;SDS011;51226;47.504;19.074;2022-07-29T09:31:49;7.95;;;5.60;;
64791;SDS011;51226;47.504;19.074;2022-07-29T09:38:18;6.97;;;6.37;;
64791;SDS011;51226;47.504;19.074;2022-07-29T09:41:21;8.30;;;5.57;;
64791;SDS011;51226;47.504;19.074;2022-07-29T09:44:25;6.68;;;5.30;;
64791;SDS011;51226;47.504;19.074;2022-07-29T09:47:39;8.43;;;5.60;;
64791;SDS011;51226;47.504;19.074;2022-07-29T09:50:45;5.97;;;5.35;;
64791;SDS011;51226;47.504;19.074;2022-07-29T09:53:50;6.15;;;5.60;;
64791;SDS011;51226;47.504;19.074;2022-07-29T09:56:55;6.70;;;5.32;;
64791;SDS011;51226;47.504;19.074;2022-07-29T09:59:59;8.77;;;5.60;;
64791;SDS011;51226;47.504;19.074;2022-07-29T10:03:13;5.35;;;4.85;;
64791;SDS011;51226;47.504;19.074;2022-07-29T10:06:17;6.15;;;4.50;;
64791;SDS011;51226;47.504;19.074;2022-07-29T10:09:19;4.90;;;4.35;;
64791;SDS011;51226;47.504;19.074;2022-07-29T10:12:23;9.60;;;4.68;;
64791;SDS011;51226;47.504;19.074;2022-07-29T10:15:27;10.02;;;5.30;;
64791;SDS011;51226;47.504;19.074;2022-07-29T10:18:32;8.23;;;4.62;;
64791;SDS011;51226;47.504;19.074;2022-07-29T10:21:35;5.90;;;5.03;;
64791;SDS011;51226;47.504;19.074;2022-07-29T10:24:40;6.18;;;4.90;;
64791;SDS011;51226;47.504;19.074;2022-07-29T10:27:43;6.12;;;5.00;;
64791;SDS011;51226;47.504;19.074;2022-07-29T10:30:48;5.25;;;4.50;;
64791;SDS011;51226;47.504;19.074;2022-07-29T10:37:52;5.43;;;4.80;;
64791;SDS011;51226;47.504;19.074;2022-07-29T10:44:39;6.32;;;4.70;;
64791;SDS011;51226;47.504;19.074;2022-07-29T10:47:43;7.05;;;4.45;;
64791;SDS011;51226;47.504;19.074;2022-07-29T10:50:56;5.12;;;4.45;;
64791;SDS011;51226;47.504;19.074;2022-07-29T10:54:02;4.50;;;4.10;;
64791;SDS011;51226;47.504;19.074;2022-07-29T11:00:48;4.65;;;4.18;;
64791;SDS011;51226;47.504;19.074;2022-07-29T11:03:52;5.82;;;3.83;;
64791;SDS011;51226;47.504;19.074;2022-07-29T11:17:00;6.30;;;4.75;;
64791;SDS011;51226;47.504;19.074;2022-07-29T11:23:33;5.10;;;4.60;;
64791;SDS011;51226;47.504;19.074;2022-07-29T11:26:43;4.32;;;3.95;;
64791;SDS011;51226;47.504;19.074;2022-07-29T11:32:52;5.68;;;4.10;;
64791;SDS011;51226;47.504;19.074;2022-07-29T11:39:27;7.57;;;4.30;;
64791;SDS011;51226;47.504;19.074;2022-07-29T11:42:51;8.23;;;4.32;;
64791;SDS011;51226;47.504;19.074;2022-07-29T11:45:54;5.05;;;4.65;;
64791;SDS011;51226;47.504;19.074;2022-07-29T11:48:57;4.97;;;4.57;;
64791;SDS011;51226;47.504;19.074;2022-07-29T11:52:00;8.65;;;4.20;;
64791;SDS011;51226;47.504;19.074;2022-07-29T11:55:05;4.37;;;3.97;;
64791;SDS011;51226;47.504;19.074;2022-07-29T11:58:28;4.55;;;4.15;;
64791;SDS011;51226;47.504;19.074;2022-07-29T12:01:32;4.82;;;4.30;;
64791;SDS011;51226;47.504;19.074;2022-07-29T12:04:50;4.20;;;3.90;;
64791;SDS011;51226;47.504;19.074;2022-07-29T12:08:05;6.20;;;3.95;;
64791;SDS011;51226;47.504;19.074;2022-07-29T12:11:18;4.72;;;4.15;;
64791;SDS011;51226;47.504;19.074;2022-07-29T12:14:24;4.55;;;4.00;;
64791;SDS011;51226;47.504;19.074;2022-07-29T12:17:35;4.40;;;3.97;;
64791;SDS011;51226;47.504;19.074;2022-07-29T12:20:41;4.62;;;4.22;;
64791;SDS011;51226;47.504;19.074;2022-07-29T12:23:51;6.28;;;5.65;;
64791;SDS011;51226;47.504;19.074;2022-07-29T12:27:08;4.90;;;4.50;;
64791;SDS011;51226;47.504;19.074;2022-07-29T12:30:14;5.10;;;4.57;;
64791;SDS011;51226;47.504;19.074;2022-07-29T12:33:20;5.18;;;4.68;;
64791;SDS011;51226;47.504;19.074;2022-07-29T12:36:23;4.90;;;4.50;;
64791;SDS011;51226;47.504;19.074;2022-07-29T12:39:26;6.47;;;4.00;;
64791;SDS011;51226;47.504;19.074;2022-07-29T12:42:30;5.15;;;4.28;;
64791;SDS011;51226;47.504;19.074;2022-07-29T12:45:33;5.60;;;4.18;;
64791;SDS011;51226;47.504;19.074;2022-07-29T12:48:37;5.50;;;4.05;;
64791;SDS011;51226;47.504;19.074;2022-07-29T12:51:44;4.80;;;3.90;;
64791;SDS011;51226;47.504;19.074;2022-07-29T12:54:47;4.55;;;4.15;;
64791;SDS011;51226;47.504;19.074;2022-07-29T12:57:50;7.60;;;4.30;;
64791;SDS011;51226;47.504;19.074;2022-07-29T13:04:25;4.43;;;3.97;;
64791;SDS011;51226;47.504;19.074;2022-07-29T13:07:33;4.37;;;3.85;;
64791;SDS011;51226;47.504;19.074;2022-07-29T13:10:58;6.05;;;4.28;;
64791;SDS011;51226;47.504;19.074;2022-07-29T13:14:01;3.90;;;3.67;;
64791;SDS011;51226;47.504;19.074;2022-07-29T13:17:09;6.20;;;4.10;;
64791;SDS011;51226;47.504;19.074;2022-07-29T13:20:12;4.30;;;3.97;;
64791;SDS011;51226;47.504;19.074;2022-07-29T13:23:16;5.47;;;4.00;;
64791;SDS011;51226;47.504;19.074;2022-07-29T13:26:19;4.32;;;4.03;;
64791;SDS011;51226;47.504;19.074;2022-07-29T13:29:21;8.00;;;3.72;;
64791;SDS011;51226;47.504;19.074;2022-07-29T13:32:25;5.50;;;4.03;;
64791;SDS011;51226;47.504;19.074;2022-07-29T13:35:30;6.12;;;4.05;;
64791;SDS011;51226;47.504;19.074;2022-07-29T13:38:33;5.72;;;4.00;;
64791;SDS011;51226;47.504;19.074;2022-07-29T13:41:36;4.28;;;3.87;;
64791;SDS011;51226;47.504;19.074;2022-07-29T13:44:40;4.93;;;4.20;;
64791;SDS011;51226;47.504;19.074;2022-07-29T13:47:43;4.72;;;4.37;;
64791;SDS011;51226;47.504;19.074;2022-07-29T13:50:51;4.57;;;4.18;;
64791;SDS011;51226;47.504;19.074;2022-07-29T13:53:53;7.28;;;4.53;;
64791;SDS011;51226;47.504;19.074;2022-07-29T13:56:56;6.22;;;4.40;;
64791;SDS011;51226;47.504;19.074;2022-07-29T13:59:59;4.97;;;4.37;;
64791;SDS011;51226;47.504;19.074;2022-07-29T14:03:09;5.18;;;4.50;;
64791;SDS011;51226;47.504;19.074;2022-07-29T14:06:12;6.22;;;4.65;;
64791;SDS011;51226;47.504;19.074;2022-07-29T14:09:15;5.05;;;4.65;;
64791;SDS011;51226;47.504;19.074;2022-07-29T14:12:19;4.97;;;4.00;;
64791;SDS011;51226;47.504;19.074;2022-07-29T14:15:21;7.15;;;5.00;;
64791;SDS011;51226;47.504;19.074;2022-07-29T14:18:26;4.40;;;4.00;;
64791;SDS011;51226;47.504;19.074;2022-07-29T14:21:28;5.82;;;4.53;;
64791;SDS011;51226;47.504;19.074;2022-07-29T14:24:35;5.32;;;4.20;;
64791;SDS011;51226;47.504;19.074;2022-07-29T14:27:38;7.62;;;4.00;;
64791;SDS011;51226;47.504;19.074;2022-07-29T14:30:43;4.78;;;4.20;;
64791;SDS011;51226;47.504;19.074;2022-07-29T14:33:46;5.57;;;5.03;;
64791;SDS011;51226;47.504;19.074;2022-07-29T14:36:50;6.30;;;4.90;;
64791;SDS011;51226;47.504;19.074;2022-07-29T14:39:53;4.60;;;4.22;;
64791;SDS011;51226;47.504;19.074;2022-07-29T14:42:56;5.72;;;5.00;;
64791;SDS011;51226;47.504;19.074;2022-07-29T14:46:00;4.72;;;4.35;;
64791;SDS011;51226;47.504;19.074;2022-07-29T14:49:09;4.60;;;4.30;;
64791;SDS011;51226;47.504;19.074;2022-07-29T14:52:12;4.35;;;4.05;;
64791;SDS011;51226;47.504;19.074;2022-07-29T14:55:15;6.20;;;4.45;;
64791;SDS011;51226;47.504;19.074;2022-07-29T14:58:21;5.03;;;4.57;;
64791;SDS011;51226;47.504;19.074;2022-07-29T15:01:24;5.32;;;4.60;;
64791;SDS011;51226;47.504;19.074;2022-07-29T15:04:28;6.50;;;5.07;;
64791;SDS011;51226;47.504;19.074;2022-07-29T15:07:30;4.57;;;4.22;;
64791;SDS011;51226;47.504;19.074;2022-07-29T15:10:33;6.60;;;4.72;;
64791;SDS011;51226;47.504;19.074;2022-07-29T15:13:37;5.22;;;4.53;;
64791;SDS011;51226;47.504;19.074;2022-07-29T15:16:39;4.80;;;4.40;;
64791;SDS011;51226;47.504;19.074;2022-07-29T15:19:48;4.55;;;4.15;;
64791;SDS011;51226;47.504;19.074;2022-07-29T15:22:50;5.22;;;4.65;;
64791;SDS011;51226;47.504;19.074;2022-07-29T15:25:53;8.68;;;4.60;;
64791;SDS011;51226;47.504;19.074;2022-07-29T15:28:56;6.28;;;4.30;;
64791;SDS011;51226;47.504;19.074;2022-07-29T15:31:59;5.47;;;4.97;;
64791;SDS011;51226;47.504;19.074;2022-07-29T15:35:02;4.75;;;4.32;;
64791;SDS011;51226;47.504;19.074;2022-07-29T15:38:05;5.03;;;4.62;;
64791;SDS011;51226;47.504;19.074;2022-07-29T15:41:08;5.12;;;4.72;;
64791;SDS011;51226;47.504;19.074;2022-07-29T15:44:11;5.75;;;5.25;;
64791;SDS011;51226;47.504;19.074;2022-07-29T15:47:14;5.50;;;5.00;;
64791;SDS011;51226;47.504;19.074;2022-07-29T15:50:17;5.10;;;4.60;;
64791;SDS011;51226;47.504;19.074;2022-07-29T15:53:21;5.87;;;4.62;;
64791;SDS011;51226;47.504;19.074;2022-07-29T15:56:24;7.72;;;4.60;;
64791;SDS011;51226;47.504;19.074;2022-07-29T15:59:27;5.03;;;4.53;;
64791;SDS011;51226;47.504;19.074;2022-07-29T16:02:30;5.70;;;5.20;;
64791;SDS011;51226;47.504;19.074;2022-07-29T16:05:33;5.90;;;4.50;;
64791;SDS011;51226;47.504;19.074;2022-07-29T16:08:35;4.72;;;4.43;;
64791;SDS011;51226;47.504;19.074;2022-07-29T16:11:38;5.43;;;4.60;;
64791;SDS011;51226;47.504;19.074;2022-07-29T16:14:42;5.32;;;4.20;;
64791;SDS011;51226;47.504;19.074;2022-07-29T16:17:46;5.55;;;4.80;;
64791;SDS011;51226;47.504;19.074;2022-07-29T16:20:48;6.68;;;4.87;;
64791;SDS011;51226;47.504;19.074;2022-07-29T16:23:52;6.53;;;4.82;;
64791;SDS011;51226;47.504;19.074;2022-07-29T16:26:54;6.70;;;4.60;;
64791;SDS011;51226;47.504;19.074;2022-07-29T16:29:58;6.05;;;4.50;;
64791;SDS011;51226;47.504;19.074;2022-07-29T16:33:03;5.03;;;4.53;;
64791;SDS011;51226;47.504;19.074;2022-07-29T16:36:10;5.93;;;4.55;;
64791;SDS011;51226;47.504;19.074;2022-07-29T16:39:16;6.43;;;4.57;;
64791;SDS011;51226;47.504;19.074;2022-07-29T16:42:19;5.68;;;4.95;;
64791;SDS011;51226;47.504;19.074;2022-07-29T16:45:41;8.13;;;5.35;;
64791;SDS011;51226;47.504;19.074;2022-07-29T16:48:48;5.22;;;4.70;;
64791;SDS011;51226;47.504;19.074;2022-07-29T16:51:51;6.35;;;4.78;;
64791;SDS011;51226;47.504;19.074;2022-07-29T16:54:55;5.93;;;4.70;;
64791;SDS011;51226;47.504;19.074;2022-07-29T16:57:58;6.57;;;4.78;;
64791;SDS011;51226;47.504;19.074;2022-07-29T17:01:04;6.00;;;5.40;;
64791;SDS011;51226;47.504;19.074;2022-07-29T17:04:07;6.65;;;4.82;;
64791;SDS011;51226;47.504;19.074;2022-07-29T17:07:10;5.15;;;4.65;;
64791;SDS011;51226;47.504;19.074;2022-07-29T17:10:13;7.05;;;5.20;;
64791;SDS011;51226;47.504;19.074;2022-07-29T17:13:16;6.35;;;4.68;;
64791;SDS011;51226;47.504;19.074;2022-07-29T17:16:18;6.32;;;5.75;;
64791;SDS011;51226;47.504;19.074;2022-07-29T17:19:26;5.25;;;4.85;;
64791;SDS011;51226;47.504;19.074;2022-07-29T17:22:34;5.93;;;4.93;;
64791;SDS011;51226;47.504;19.074;2022-07-29T17:25:38;5.78;;;5.28;;
64791;SDS011;51226;47.504;19.074;2022-07-29T17:28:41;5.62;;;5.07;;
64791;SDS011;51226;47.504;19.074;2022-07-29T17:31:44;5.97;;;5.45;;
64791;SDS011;51226;47.504;19.074;2022-07-29T17:34:46;6.03;;;5.12;;
64791;SDS011;51226;47.504;19.074;2022-07-29T17:37:49;7.22;;;4.93;;
64791;SDS011;51226;47.504;19.074;2022-07-29T17:40:52;8.70;;;5.75;;
64791;SDS011;51226;47.504;19.074;2022-07-29T17:43:55;6.82;;;5.82;;
64791;SDS011;51226;47.504;19.074;2022-07-29T17:46:59;6.80;;;5.60;;
64791;SDS011;51226;47.504;19.074;2022-07-29T17:50:03;7.32;;;6.15;;
64791;SDS011;51226;47.504;19.074;2022-07-29T17:53:06;7.28;;;5.97;;
64791;SDS011;51226;47.504;19.074;2022-07-29T17:56:18;6.35;;;5.32;;
64791;SDS011;51226;47.504;19.074;2022-07-29T17:59:20;6.43;;;5.57;;
64791;SDS011;51226;47.504;19.074;2022-07-29T18:02:26;6.78;;;5.93;;
64791;SDS011;51226;47.504;19.074;2022-07-29T18:05:29;6.53;;;5.75;;
64791;SDS011;51226;47.504;19.074;2022-07-29T18:08:32;9.07;;;6.25;;
64791;SDS011;51226;47.504;19.074;2022-07-29T18:11:35;8.50;;;6.03;;
64791;SDS011;51226;47.504;19.074;2022-07-29T18:14:40;6.37;;;5.80;;
64791;SDS011;51226;47.504;19.074;2022-07-29T18:17:43;6.97;;;6.30;;
64791;SDS011;51226;47.504;19.074;2022-07-29T18:20:59;9.10;;;6.70;;
64791;SDS011;51226;47.504;19.074;2022-07-29T18:24:02;7.85;;;6.22;;
64791;SDS011;51226;47.504;19.074;2022-07-29T18:27:05;10.15;;;6.20;;
64791;SDS011;51226;47.504;19.074;2022-07-29T18:30:08;6.87;;;6.25;;
64791;SDS011;51226;47.504;19.074;2022-07-29T18:33:11;6.50;;;5.90;;
64791;SDS011;51226;47.504;19.074;2022-07-29T18:45:30;7.37;;;6.15;;
64791;SDS011;51226;47.504;19.074;2022-07-29T18:48:34;8.55;;;6.53;;
64791;SDS011;51226;47.504;19.074;2022-07-29T18:51:37;8.38;;;6.43;;
64791;SDS011;51226;47.504;19.074;2022-07-29T18:54:40;5.95;;;5.30;;
64791;SDS011;51226;47.504;19.074;2022-07-29T18:57:43;10.55;;;9.05;;
64791;SDS011;51226;47.504;19.074;2022-07-29T19:00:57;8.32;;;7.40;;
64791;SDS011;51226;47.504;19.074;2022-07-29T19:04:00;6.75;;;6.03;;
64791;SDS011;51226;47.504;19.074;2022-07-29T19:07:03;6.03;;;5.53;;
64791;SDS011;51226;47.504;19.074;2022-07-29T19:10:06;6.78;;;5.43;;
64791;SDS011;51226;47.504;19.074;2022-07-29T19:13:09;8.40;;;5.22;;
64791;SDS011;51226;47.504;19.074;2022-07-29T19:16:14;6.37;;;5.37;;
64791;SDS011;51226;47.504;19.074;2022-07-29T19:19:17;6.35;;;5.50;;
64791;SDS011;51226;47.504;19.074;2022-07-29T19:22:20;7.55;;;4.90;;
64791;SDS011;51226;47.504;19.074;2022-07-29T19:25:23;7.32;;;5.12;;
64791;SDS011;51226;47.504;19.074;2022-07-29T19:28:26;6.07;;;4.87;;
64791;SDS011;51226;47.504;19.074;2022-07-29T19:31:29;5.72;;;5.15;;
64791;SDS011;51226;47.504;19.074;2022-07-29T19:34:32;5.28;;;4.70;;
64791;SDS011;51226;47.504;19.074;2022-07-29T19:37:54;6.00;;;5.20;;
64791;SDS011;51226;47.504;19.074;2022-07-29T19:40:59;5.05;;;4.65;;
64791;SDS011;51226;47.504;19.074;2022-07-29T19:44:01;6.25;;;5.50;;
64791;SDS011;51226;47.504;19.074;2022-07-29T19:47:04;5.30;;;4.82;;
64791;SDS011;51226;47.504;19.074;2022-07-29T19:50:07;5.28;;;4.78;;
64791;SDS011;51226;47.504;19.074;2022-07-29T19:53:11;5.12;;;4.72;;
64791;SDS011;51226;47.504;19.074;2022-07-29T19:56:14;7.72;;;7.03;;
64791;SDS011;51226;47.504;19.074;2022-07-29T19:59:18;5.85;;;5.45;;
64791;SDS011;51226;47.504;19.074;2022-07-29T20:02:25;5.50;;;5.10;;
64791;SDS011;51226;47.504;19.074;2022-07-29T20:05:29;5.53;;;5.10;;
64791;SDS011;51226;47.504;19.074;2022-07-29T20:08:32;6.87;;;5.00;;
64791;SDS011;51226;47.504;19.074;2022-07-29T20:11:37;5.53;;;5.03;;
64791;SDS011;51226;47.504;19.074;2022-07-29T20:14:40;7.18;;;5.18;;
64791;SDS011;51226;47.504;19.074;2022-07-29T20:17:43;5.43;;;4.93;;
64791;SDS011;51226;47.504;19.074;2022-07-29T20:20:46;6.22;;;5.35;;
64791;SDS011;51226;47.504;19.074;2022-07-29T20:23:51;5.40;;;4.90;;
64791;SDS011;51226;47.504;19.074;2022-07-29T20:26:54;5.87;;;5.30;;
64791;SDS011;51226;47.504;19.074;2022-07-29T20:29:57;6.32;;;5.72;;
64791;SDS011;51226;47.504;19.074;2022-07-29T20:32:59;5.57;;;5.05;;
64791;SDS011;51226;47.504;19.074;2022-07-29T20:36:03;5.75;;;5.35;;
64791;SDS011;51226;47.504;19.074;2022-07-29T20:39:05;5.85;;;5.45;;
64791;SDS011;51226;47.504;19.074;2022-07-29T20:42:08;6.97;;;5.53;;
64791;SDS011;51226;47.504;19.074;2022-07-29T20:48:14;6.93;;;6.32;;
64791;SDS011;51226;47.504;19.074;2022-07-29T20:57:21;6.90;;;5.93;;
64791;SDS011;51226;47.504;19.074;2022-07-29T21:00:41;5.90;;;5.32;;
64791;SDS011;51226;47.504;19.074;2022-07-29T21:03:43;5.47;;;4.93;;
64791;SDS011;51226;47.504;19.074;2022-07-29T21:06:46;6.57;;;5.57;;
64791;SDS011;51226;47.504;19.074;2022-07-29T21:12:52;5.30;;;4.80;;
64791;SDS011;51226;47.504;19.074;2022-07-29T21:15:55;7.22;;;5.07;;
64791;SDS011;51226;47.504;19.074;2022-07-29T21:19:07;5.97;;;5.43;;
64791;SDS011;51226;47.504;19.074;2022-07-29T21:28:15;6.72;;;6.03;;
64791;SDS011;51226;47.504;19.074;2022-07-29T21:31:52;6.62;;;5.57;;
64791;SDS011;51226;47.504;19.074;2022-07-29T21:37:57;7.90;;;5.40;;
64791;SDS011;51226;47.504;19.074;2022-07-29T21:44:02;5.35;;;4.85;;
64791;SDS011;51226;47.504;19.074;2022-07-29T21:50:08;5.68;;;5.12;;
64791;SDS011;51226;47.504;19.074;2022-07-29T21:56:17;5.90;;;5.30;;
64791;SDS011;51226;47.504;19.074;2022-07-29T21:59:19;5.10;;;4.70;;
64791;SDS011;51226;47.504;19.074;2022-07-29T22:02:22;6.80;;;5.65;;
64791;SDS011;51226;47.504;19.074;2022-07-29T22:05:25;6.72;;;5.25;;
64791;SDS011;51226;47.504;19.074;2022-07-29T22:08:29;6.07;;;5.47;;
64791;SDS011;51226;47.504;19.074;2022-07-29T22:11:32;6.12;;;5.60;;
64791;SDS011;51226;47.504;19.074;2022-07-29T22:14:34;5.68;;;5.12;;
64791;SDS011;51226;47.504;19.074;2022-07-29T22:17:37;5.85;;;5.35;;
64791;SDS011;51226;47.504;19.074;2022-07-29T22:20:40;7.07;;;6.32;;
64791;SDS011;51226;47.504;19.074;2022-07-29T22:23:42;6.50;;;5.57;;
64791;SDS011;51226;47.504;19.074;2022-07-29T22:29:48;7.40;;;6.00;;
64791;SDS011;51226;47.504;19.074;2022-07-29T22:32:50;6.45;;;5.95;;
64791;SDS011;51226;47.504;19.074;2022-07-29T22:35:53;6.35;;;5.70;;
64791;SDS011;51226;47.504;19.074;2022-07-29T22:38:56;6.32;;;5.72;;
64791;SDS011;51226;47.504;19.074;2022-07-29T22:41:59;6.43;;;5.82;;
64791;SDS011;51226;47.504;19.074;2022-07-29T22:45:02;7.90;;;6.20;;
64791;SDS011;51226;47.504;19.074;2022-07-29T22:48:05;6.57;;;5.95;;
64791;SDS011;51226;47.504;19.074;2022-07-29T22:51:08;8.30;;;5.80;;
64791;SDS011;51226;47.504;19.074;2022-07-29T22:54:11;7.37;;;6.00;;
64791;SDS011;51226;47.504;19.074;2022-07-29T23:00:16;8.13;;;5.87;;
64791;SDS011;51226;47.504;19.074;2022-07-29T23:03:19;8.45;;;6.37;;
64791;SDS011;51226;47.504;19.074;2022-07-29T23:06:23;6.10;;;5.57;;
64791;SDS011;51226;47.504;19.074;2022-07-29T23:09:25;7.32;;;6.55;;
64791;SDS011;51226;47.504;19.074;2022-07-29T23:12:28;6.40;;;5.90;;
64791;SDS011;51226;47.504;19.074;2022-07-29T23:18:33;8.50;;;5.75;;
64791;SDS011;51226;47.504;19.074;2022-07-29T23:21:36;7.10;;;5.93;;
64791;SDS011;51226;47.504;19.074;2022-07-29T23:24:38;6.22;;;5.55;;
64791;SDS011;51226;47.504;19.074;2022-07-29T23:27:42;6.72;;;5.62;;
64791;SDS011;51226;47.504;19.074;2022-07-29T23:30:44;6.35;;;5.72;;
64791;SDS011;51226;47.504;19.074;2022-07-29T23:33:47;6.93;;;6.20;;
64791;SDS011;51226;47.504;19.074;2022-07-29T23:36:50;6.12;;;5.62;;
64791;SDS011;51226;47.504;19.074;2022-07-29T23:42:55;7.22;;;5.90;;
64791;SDS011;51226;47.504;19.074;2022-07-29T23:45:58;7.10;;;5.90;;
64791;SDS011;51226;47.504;19.074;2022-07-29T23:49:01;6.40;;;5.80;;
64791;SDS011;51226;47.504;19.074;2022-07-29T23:52:04;7.10;;;6.40;;
64791;SDS011;51226;47.504;19.074;2022-07-29T23:55:08;7.20;;;5.95;;
64791;SDS011;51226;47.504;19.074;2022-07-29T23:58:32;6.12;;;5.53;;
